createdAt,value
2022-12-26T00:01:24.360Z,12.59
2022-12-26T00:06:28.418Z,12.69
2022-12-26T00:11:30.061Z,12.72
2022-12-26T00:16:31.859Z,12.46
2022-12-26T00:21:33.830Z,12.70
2022-12-26T00:26:36.277Z,12.62
2022-12-26T00:31:38.143Z,12.68
2022-12-26T00:36:39.865Z,12.69
2022-12-26T00:41:41.478Z,12.58
2022-12-26T00:46:43.150Z,12.61
2022-12-26T00:51:45.650Z,12.64
2022-12-26T00:56:47.303Z,12.75
2022-12-26T01:01:49.182Z,12.85
2022-12-26T01:06:51.041Z,12.93
2022-12-26T01:11:52.633Z,12.82
2022-12-26T01:16:54.283Z,12.75
2022-12-26T01:21:55.906Z,12.87
2022-12-26T01:26:57.518Z,12.76
2022-12-26T01:31:59.226Z,12.85
2022-12-26T01:37:00.907Z,12.90
2022-12-26T01:42:02.515Z,12.94
2022-12-26T01:47:04.244Z,12.78
2022-12-26T01:52:12.320Z,12.99
2022-12-26T01:57:20.682Z,12.98
2022-12-26T02:02:23.332Z,13.21
2022-12-26T02:07:26.586Z,13.07
2022-12-26T02:12:38.689Z,13.06
2022-12-26T02:17:42.577Z,13.05
2022-12-26T02:23:05.401Z,12.75
2022-12-26T02:28:29.763Z,12.75
2022-12-26T02:34:05.643Z,12.63
2022-12-26T02:39:44.932Z,12.70
2022-12-26T02:45:13.817Z,12.67
2022-12-26T02:51:03.485Z,13.00
2022-12-26T02:56:37.000Z,12.83
2022-12-26T03:02:02.566Z,12.91
2022-12-26T03:07:31.263Z,12.78
2022-12-26T03:12:59.619Z,12.68
2022-12-26T03:18:06.507Z,12.47
2022-12-26T03:23:12.738Z,12.35
2022-12-26T03:28:15.154Z,12.45
2022-12-26T03:33:42.387Z,12.58
2022-12-26T03:38:57.748Z,12.70
2022-12-26T03:44:30.443Z,12.76
2022-12-26T03:49:55.707Z,12.68
2022-12-26T03:55:25.708Z,12.61
2022-12-26T04:00:49.959Z,12.69
2022-12-26T04:06:12.183Z,12.69
2022-12-26T04:11:36.041Z,12.73
2022-12-26T04:17:01.376Z,12.68
2022-12-26T04:22:49.566Z,12.44
2022-12-26T04:28:09.824Z,12.77
2022-12-26T04:33:38.027Z,12.82
2022-12-26T04:39:06.500Z,12.82
2022-12-26T04:44:09.977Z,13.06
2022-12-26T04:49:32.471Z,13.00
2022-12-26T04:54:34.173Z,12.89
2022-12-26T04:59:35.859Z,13.02
2022-12-26T05:04:56.130Z,13.11
2022-12-26T05:09:57.766Z,13.00
2022-12-26T05:14:59.376Z,13.24
2022-12-26T05:20:20.866Z,13.27
2022-12-26T05:25:48.212Z,13.34
2022-12-26T05:30:49.933Z,13.36
2022-12-26T05:35:51.593Z,13.22
2022-12-26T05:40:53.211Z,13.25
2022-12-26T05:45:54.944Z,13.09
2022-12-26T05:51:03.860Z,13.18
2022-12-26T05:56:13.861Z,13.22
2022-12-26T06:01:18.583Z,13.09
2022-12-26T06:06:21.624Z,13.06
2022-12-26T06:11:26.628Z,13.02
2022-12-26T06:16:28.554Z,12.89
2022-12-26T06:21:30.266Z,12.93
2022-12-26T06:26:31.914Z,12.90
2022-12-26T06:31:33.703Z,12.85
2022-12-26T06:36:35.362Z,12.85
2022-12-26T06:41:37.037Z,12.94
2022-12-26T06:46:38.714Z,12.84
2022-12-26T06:51:41.094Z,12.86
2022-12-26T06:56:42.771Z,12.88
2022-12-26T07:01:44.528Z,12.93
2022-12-26T07:06:46.265Z,13.05
2022-12-26T07:11:50.625Z,12.83
2022-12-26T07:16:52.326Z,12.87
2022-12-26T07:21:54.103Z,12.70
2022-12-26T07:26:55.735Z,12.67
2022-12-26T07:31:58.289Z,12.72
2022-12-26T07:37:00.000Z,12.66
2022-12-26T07:42:01.767Z,12.64
2022-12-26T07:47:03.383Z,12.65
2022-12-26T07:52:05.260Z,12.70
2022-12-26T07:57:46.319Z,12.66
2022-12-26T08:02:28.708Z,12.43
2022-12-26T08:07:30.457Z,12.59
2022-12-26T08:12:34.316Z,12.76
2022-12-26T08:17:35.949Z,12.91
2022-12-26T08:22:37.573Z,13.04
2022-12-26T08:27:39.493Z,13.41
2022-12-26T08:32:44.235Z,13.66
2022-12-26T08:37:48.022Z,13.62
2022-12-26T08:43:11.843Z,13.56
2022-12-26T08:48:11.237Z,13.63
2022-12-26T08:53:12.864Z,13.66
2022-12-26T08:58:14.512Z,13.72
2022-12-26T09:03:16.295Z,13.67
2022-12-26T09:08:17.933Z,13.80
2022-12-26T09:13:20.329Z,13.84
2022-12-26T09:18:21.961Z,13.84
2022-12-26T09:23:23.583Z,13.92
2022-12-26T09:28:25.211Z,14.11
2022-12-26T09:33:26.876Z,14.44
2022-12-26T09:38:28.512Z,14.50
2022-12-26T09:43:58.917Z,14.41
2022-12-26T09:49:16.462Z,14.75
2022-12-26T09:55:00.362Z,14.52
2022-12-26T10:00:05.450Z,14.24
2022-12-26T10:05:14.562Z,14.06
2022-12-26T10:10:58.410Z,14.03
2022-12-26T10:16:08.808Z,13.99
2022-12-26T10:21:13.080Z,13.96
2022-12-26T10:26:25.218Z,13.72
2022-12-26T10:31:42.395Z,13.66
2022-12-26T10:36:51.772Z,13.78
2022-12-26T10:41:58.542Z,13.64
2022-12-26T10:47:12.326Z,13.66
2022-12-26T10:52:15.906Z,13.94
2022-12-26T10:57:17.920Z,13.85
2022-12-26T11:02:31.050Z,13.83
2022-12-26T11:07:36.888Z,14.01
2022-12-26T11:12:54.434Z,14.19
2022-12-26T11:18:17.090Z,14.25
2022-12-26T11:23:33.676Z,14.33
2022-12-26T11:28:37.402Z,14.55
2022-12-26T11:33:45.080Z,14.64
2022-12-26T11:38:53.475Z,14.47
2022-12-26T11:43:59.126Z,14.26
2022-12-26T11:49:01.714Z,14.04
2022-12-26T11:54:19.044Z,13.89
2022-12-26T11:59:23.735Z,13.81
2022-12-26T12:04:25.350Z,13.77
2022-12-26T12:09:56.662Z,13.64
2022-12-26T12:15:27.404Z,13.59
2022-12-26T12:20:41.297Z,13.50
2022-12-26T12:26:04.288Z,13.41
2022-12-26T12:31:05.862Z,13.35
2022-12-26T12:36:16.986Z,13.37
2022-12-26T12:41:27.464Z,13.25
2022-12-26T12:46:50.133Z,13.26
2022-12-26T12:52:25.407Z,13.27
2022-12-26T12:57:48.159Z,13.16
2022-12-26T13:03:22.772Z,13.15
2022-12-26T13:08:32.493Z,13.02
2022-12-26T13:13:40.534Z,11.46
2022-12-26T13:18:56.846Z,10.33
2022-12-26T13:24:24.287Z,10.14
2022-12-26T13:29:40.333Z,10.24
2022-12-26T13:34:44.983Z,10.49
2022-12-26T13:39:46.736Z,10.74
2022-12-26T13:44:53.451Z,10.86
2022-12-26T13:49:55.476Z,10.88
2022-12-26T13:54:57.439Z,10.78
2022-12-26T13:59:59.028Z,10.74
2022-12-26T14:05:27.905Z,10.69
2022-12-26T14:11:11.075Z,10.68
2022-12-26T14:16:23.584Z,10.63
2022-12-26T14:21:25.215Z,10.83
2022-12-26T14:26:44.038Z,10.89
2022-12-26T14:32:04.240Z,10.97
2022-12-26T14:37:48.438Z,10.98
2022-12-26T14:43:23.601Z,10.94
2022-12-26T14:48:28.070Z,10.89
2022-12-26T14:53:34.679Z,10.90
2022-12-26T14:58:39.415Z,10.90
2022-12-26T15:03:44.840Z,10.93
2022-12-26T15:09:23.513Z,10.78
2022-12-26T15:14:40.891Z,10.71
2022-12-26T15:20:10.172Z,10.65
2022-12-26T15:25:29.816Z,10.74
2022-12-26T15:30:40.179Z,10.73
2022-12-26T15:36:01.129Z,10.68
2022-12-26T15:41:24.513Z,10.60
2022-12-26T15:46:31.214Z,10.52
2022-12-26T15:51:45.064Z,10.54
2022-12-26T15:57:06.613Z,10.47
2022-12-26T16:02:33.096Z,10.54
2022-12-26T16:07:41.019Z,10.49
2022-12-26T16:13:01.309Z,10.21
2022-12-26T16:18:17.047Z,10.38
2022-12-26T16:23:22.318Z,10.36
2022-12-26T16:28:29.634Z,10.47
2022-12-26T16:33:42.505Z,10.44
2022-12-26T16:38:44.630Z,10.67
2022-12-26T16:43:46.577Z,10.58
2022-12-26T16:48:56.177Z,10.51
2022-12-26T16:54:15.104Z,10.49
2022-12-26T16:59:21.150Z,10.50
2022-12-26T17:04:28.945Z,10.50
2022-12-26T17:09:38.400Z,10.50
2022-12-26T17:14:43.351Z,10.37
2022-12-26T17:19:47.792Z,10.44
2022-12-26T17:25:21.665Z,10.61
2022-12-26T17:30:31.779Z,10.82
2022-12-26T17:36:13.489Z,10.94
2022-12-26T17:41:00.763Z,10.86
2022-12-26T17:46:03.246Z,10.96
2022-12-26T17:51:07.587Z,10.97
2022-12-26T17:56:17.656Z,11.07
2022-12-26T18:01:21.757Z,10.94
2022-12-26T18:06:24.375Z,10.90
2022-12-26T18:11:26.043Z,11.08
2022-12-26T18:16:29.653Z,11.04
2022-12-26T18:21:31.307Z,11.04
2022-12-26T18:26:33.121Z,10.93
2022-12-26T18:31:34.820Z,10.84
2022-12-26T18:36:38.742Z,10.96
2022-12-26T18:41:40.674Z,10.91
2022-12-26T18:46:42.291Z,10.83
2022-12-26T18:51:43.952Z,10.59
2022-12-26T18:56:45.576Z,10.36
2022-12-26T19:01:47.289Z,10.11
2022-12-26T19:06:49.091Z,10.02
2022-12-26T19:11:51.057Z,9.89
2022-12-26T19:16:52.661Z,9.89
2022-12-26T19:21:54.258Z,9.85
2022-12-26T19:26:55.869Z,9.78
2022-12-26T19:31:57.641Z,9.79
2022-12-26T19:36:59.378Z,9.73
2022-12-26T19:42:01.024Z,9.64
2022-12-26T19:47:11.127Z,9.64
2022-12-26T19:52:14.428Z,9.66
2022-12-26T19:57:16.047Z,9.65
2022-12-26T20:02:18.207Z,9.70
2022-12-26T20:07:20.046Z,9.76
2022-12-26T20:12:21.739Z,9.83
2022-12-26T20:17:23.484Z,9.93
2022-12-26T20:22:25.159Z,9.84
2022-12-26T20:27:27.563Z,9.47
2022-12-26T20:32:29.189Z,9.12
2022-12-26T20:37:32.213Z,9.02
2022-12-26T20:42:33.843Z,8.88
2022-12-26T20:47:35.466Z,8.70
2022-12-26T20:52:37.128Z,8.64
2022-12-26T20:57:38.804Z,8.54
2022-12-26T21:02:40.508Z,8.42
2022-12-26T21:07:42.235Z,8.41
2022-12-26T21:12:43.857Z,8.38
2022-12-26T21:17:45.486Z,8.41
2022-12-26T21:22:47.099Z,8.34
2022-12-26T21:27:50.007Z,8.32
2022-12-26T21:32:52.069Z,8.14
2022-12-26T21:37:53.708Z,7.93
2022-12-26T21:42:55.383Z,7.98
2022-12-26T21:47:56.993Z,7.62
2022-12-26T21:52:58.674Z,7.26
2022-12-26T21:58:00.873Z,6.86
2022-12-26T22:03:21.658Z,6.53
2022-12-26T22:08:23.404Z,6.32
2022-12-26T22:13:26.796Z,6.24
2022-12-26T22:18:49.930Z,6.16
2022-12-26T22:23:52.847Z,6.10
2022-12-26T22:28:56.099Z,5.98
2022-12-26T22:34:02.352Z,5.78
2022-12-26T22:39:04.224Z,5.80
2022-12-26T22:44:05.929Z,5.59
2022-12-26T22:49:07.576Z,5.50
2022-12-26T22:54:09.203Z,5.37
2022-12-26T22:59:13.672Z,5.31
2022-12-26T23:04:24.392Z,5.25
2022-12-26T23:09:26.366Z,5.14
2022-12-26T23:14:28.062Z,5.17
2022-12-26T23:19:53.313Z,5.14
2022-12-26T23:24:54.923Z,4.95
2022-12-26T23:30:15.055Z,4.82
2022-12-26T23:35:18.612Z,4.72
2022-12-26T23:40:21.340Z,4.62
2022-12-26T23:45:23.080Z,4.55
2022-12-26T23:50:24.695Z,4.46
2022-12-26T23:55:26.332Z,4.43
